sensor_id;sensor_type;location;lat;lon;timestamp;P1;durP1;ratioP1;P2;durP2;ratioP2
24173;SDS011;12324;48.146;11.502;2023-07-09T00:02:01;11.13;;;5.43;;
24173;SDS011;12324;48.146;11.502;2023-07-09T00:04:29;12.38;;;5.55;;
24173;SDS011;12324;48.146;11.502;2023-07-09T00:06:56;14.73;;;5.60;;
24173;SDS011;12324;48.146;11.502;2023-07-09T00:09:28;10.95;;;5.15;;
24173;SDS011;12324;48.146;11.502;2023-07-09T00:11:55;16.13;;;5.88;;
24173;SDS011;12324;48.146;11.502;2023-07-09T00:14:22;15.70;;;5.97;;
24173;SDS011;12324;48.146;11.502;2023-07-09T00:16:48;13.30;;;5.60;;
24173;SDS011;12324;48.146;11.502;2023-07-09T00:19:19;12.95;;;5.20;;
24173;SDS011;12324;48.146;11.502;2023-07-09T00:21:50;13.77;;;5.75;;
24173;SDS011;12324;48.146;11.502;2023-07-09T00:24:20;11.38;;;5.13;;
24173;SDS011;12324;48.146;11.502;2023-07-09T00:26:47;12.07;;;4.75;;
24173;SDS011;12324;48.146;11.502;2023-07-09T00:29:15;11.23;;;5.03;;
24173;SDS011;12324;48.146;11.502;2023-07-09T00:31:42;14.70;;;5.65;;
24173;SDS011;12324;48.146;11.502;2023-07-09T00:34:10;14.90;;;5.65;;
24173;SDS011;12324;48.146;11.502;2023-07-09T00:36:39;12.35;;;5.40;;
24173;SDS011;12324;48.146;11.502;2023-07-09T00:39:14;12.43;;;4.43;;
24173;SDS011;12324;48.146;11.502;2023-07-09T00:44:33;11.70;;;5.00;;
24173;SDS011;12324;48.146;11.502;2023-07-09T00:51:59;13.45;;;5.20;;
24173;SDS011;12324;48.146;11.502;2023-07-09T00:54:36;12.70;;;5.18;;
24173;SDS011;12324;48.146;11.502;2023-07-09T00:57:05;11.60;;;5.22;;
24173;SDS011;12324;48.146;11.502;2023-07-09T00:59:34;11.07;;;5.03;;
24173;SDS011;12324;48.146;11.502;2023-07-09T01:02:01;13.05;;;5.80;;
24173;SDS011;12324;48.146;11.502;2023-07-09T01:04:28;12.27;;;5.13;;
24173;SDS011;12324;48.146;11.502;2023-07-09T01:06:56;14.45;;;6.07;;
24173;SDS011;12324;48.146;11.502;2023-07-09T01:09:24;11.20;;;5.30;;
24173;SDS011;12324;48.146;11.502;2023-07-09T01:11:51;14.90;;;5.63;;
24173;SDS011;12324;48.146;11.502;2023-07-09T01:14:22;11.25;;;4.93;;
24173;SDS011;12324;48.146;11.502;2023-07-09T01:16:53;14.07;;;5.68;;
24173;SDS011;12324;48.146;11.502;2023-07-09T01:19:25;9.52;;;4.28;;
24173;SDS011;12324;48.146;11.502;2023-07-09T01:21:55;13.77;;;5.05;;
24173;SDS011;12324;48.146;11.502;2023-07-09T01:27:08;11.07;;;5.03;;
24173;SDS011;12324;48.146;11.502;2023-07-09T01:29:35;11.95;;;5.38;;
24173;SDS011;12324;48.146;11.502;2023-07-09T01:32:02;13.93;;;5.80;;
24173;SDS011;12324;48.146;11.502;2023-07-09T01:34:33;11.95;;;5.05;;
24173;SDS011;12324;48.146;11.502;2023-07-09T01:37:00;11.43;;;4.90;;
24173;SDS011;12324;48.146;11.502;2023-07-09T01:39:28;12.48;;;5.47;;
24173;SDS011;12324;48.146;11.502;2023-07-09T01:41:54;12.57;;;5.43;;
24173;SDS011;12324;48.146;11.502;2023-07-09T01:44:23;12.48;;;5.72;;
24173;SDS011;12324;48.146;11.502;2023-07-09T01:46:49;13.30;;;5.50;;
24173;SDS011;12324;48.146;11.502;2023-07-09T01:49:16;10.43;;;4.82;;
24173;SDS011;12324;48.146;11.502;2023-07-09T01:51:47;13.15;;;5.75;;
24173;SDS011;12324;48.146;11.502;2023-07-09T01:54:15;14.85;;;6.00;;
24173;SDS011;12324;48.146;11.502;2023-07-09T01:56:43;12.55;;;5.57;;
24173;SDS011;12324;48.146;11.502;2023-07-09T01:59:14;11.18;;;5.43;;
24173;SDS011;12324;48.146;11.502;2023-07-09T02:01:41;12.18;;;5.57;;
24173;SDS011;12324;48.146;11.502;2023-07-09T02:04:08;10.65;;;5.15;;
24173;SDS011;12324;48.146;11.502;2023-07-09T02:06:35;12.68;;;5.18;;
24173;SDS011;12324;48.146;11.502;2023-07-09T02:09:03;12.80;;;5.03;;
24173;SDS011;12324;48.146;11.502;2023-07-09T02:11:30;14.10;;;5.03;;
24173;SDS011;12324;48.146;11.502;2023-07-09T02:13:58;10.70;;;4.32;;
24173;SDS011;12324;48.146;11.502;2023-07-09T02:16:26;14.02;;;4.45;;
24173;SDS011;12324;48.146;11.502;2023-07-09T02:18:55;11.48;;;5.22;;
24173;SDS011;12324;48.146;11.502;2023-07-09T02:21:24;13.18;;;4.43;;
24173;SDS011;12324;48.146;11.502;2023-07-09T02:23:56;12.68;;;5.53;;
24173;SDS011;12324;48.146;11.502;2023-07-09T02:26:24;11.98;;;4.40;;
24173;SDS011;12324;48.146;11.502;2023-07-09T02:28:51;13.43;;;5.40;;
24173;SDS011;12324;48.146;11.502;2023-07-09T02:31:18;10.43;;;4.55;;
24173;SDS011;12324;48.146;11.502;2023-07-09T02:33:45;10.50;;;4.85;;
24173;SDS011;12324;48.146;11.502;2023-07-09T02:36:12;11.48;;;4.78;;
24173;SDS011;12324;48.146;11.502;2023-07-09T02:38:39;11.82;;;4.53;;
24173;SDS011;12324;48.146;11.502;2023-07-09T02:41:05;11.25;;;4.43;;
24173;SDS011;12324;48.146;11.502;2023-07-09T02:43:32;9.05;;;3.72;;
24173;SDS011;12324;48.146;11.502;2023-07-09T02:45:59;10.93;;;4.50;;
24173;SDS011;12324;48.146;11.502;2023-07-09T02:48:26;12.07;;;4.65;;
24173;SDS011;12324;48.146;11.502;2023-07-09T02:50:53;10.70;;;5.07;;
24173;SDS011;12324;48.146;11.502;2023-07-09T02:53:19;9.88;;;4.38;;
24173;SDS011;12324;48.146;11.502;2023-07-09T02:55:47;12.65;;;5.13;;
24173;SDS011;12324;48.146;11.502;2023-07-09T02:58:13;12.27;;;5.25;;
24173;SDS011;12324;48.146;11.502;2023-07-09T03:00:40;11.95;;;4.38;;
24173;SDS011;12324;48.146;11.502;2023-07-09T03:03:07;8.80;;;4.22;;
24173;SDS011;12324;48.146;11.502;2023-07-09T03:05:34;14.93;;;4.75;;
24173;SDS011;12324;48.146;11.502;2023-07-09T03:08:00;10.85;;;4.47;;
24173;SDS011;12324;48.146;11.502;2023-07-09T03:10:28;11.13;;;4.40;;
24173;SDS011;12324;48.146;11.502;2023-07-09T03:12:55;11.80;;;4.43;;
24173;SDS011;12324;48.146;11.502;2023-07-09T03:15:21;12.25;;;5.00;;
24173;SDS011;12324;48.146;11.502;2023-07-09T03:17:48;10.35;;;4.28;;
24173;SDS011;12324;48.146;11.502;2023-07-09T03:20:15;10.70;;;4.55;;
24173;SDS011;12324;48.146;11.502;2023-07-09T03:22:42;11.38;;;4.75;;
24173;SDS011;12324;48.146;11.502;2023-07-09T03:25:09;12.73;;;5.32;;
24173;SDS011;12324;48.146;11.502;2023-07-09T03:27:36;8.02;;;4.07;;
24173;SDS011;12324;48.146;11.502;2023-07-09T03:30:02;12.35;;;4.63;;
24173;SDS011;12324;48.146;11.502;2023-07-09T03:32:29;12.00;;;4.38;;
24173;SDS011;12324;48.146;11.502;2023-07-09T03:34:56;9.07;;;3.92;;
24173;SDS011;12324;48.146;11.502;2023-07-09T03:37:23;10.13;;;4.50;;
24173;SDS011;12324;48.146;11.502;2023-07-09T03:39:49;11.18;;;4.63;;
24173;SDS011;12324;48.146;11.502;2023-07-09T03:42:16;9.85;;;4.10;;
24173;SDS011;12324;48.146;11.502;2023-07-09T03:44:43;9.32;;;4.65;;
24173;SDS011;12324;48.146;11.502;2023-07-09T03:47:10;10.10;;;4.40;;
24173;SDS011;12324;48.146;11.502;2023-07-09T03:49:37;10.05;;;4.50;;
24173;SDS011;12324;48.146;11.502;2023-07-09T03:52:04;11.45;;;4.40;;
24173;SDS011;12324;48.146;11.502;2023-07-09T03:54:31;11.55;;;4.60;;
24173;SDS011;12324;48.146;11.502;2023-07-09T03:56:57;9.57;;;4.05;;
24173;SDS011;12324;48.146;11.502;2023-07-09T03:59:24;13.95;;;4.88;;
24173;SDS011;12324;48.146;11.502;2023-07-09T04:01:51;8.05;;;3.75;;
24173;SDS011;12324;48.146;11.502;2023-07-09T04:04:18;12.73;;;4.70;;
24173;SDS011;12324;48.146;11.502;2023-07-09T04:06:47;11.40;;;4.25;;
24173;SDS011;12324;48.146;11.502;2023-07-09T04:09:13;9.75;;;4.25;;
24173;SDS011;12324;48.146;11.502;2023-07-09T04:11:40;11.70;;;4.32;;
24173;SDS011;12324;48.146;11.502;2023-07-09T04:14:07;9.23;;;4.47;;
24173;SDS011;12324;48.146;11.502;2023-07-09T04:16:34;9.63;;;4.18;;
24173;SDS011;12324;48.146;11.502;2023-07-09T04:19:01;10.73;;;4.63;;
24173;SDS011;12324;48.146;11.502;2023-07-09T04:21:28;10.10;;;4.50;;
24173;SDS011;12324;48.146;11.502;2023-07-09T04:23:55;8.02;;;3.55;;
24173;SDS011;12324;48.146;11.502;2023-07-09T04:26:22;10.60;;;3.92;;
24173;SDS011;12324;48.146;11.502;2023-07-09T04:28:49;10.20;;;3.97;;
24173;SDS011;12324;48.146;11.502;2023-07-09T04:31:16;10.02;;;4.10;;
24173;SDS011;12324;48.146;11.502;2023-07-09T04:33:44;11.82;;;5.28;;
24173;SDS011;12324;48.146;11.502;2023-07-09T04:36:11;9.55;;;3.88;;
24173;SDS011;12324;48.146;11.502;2023-07-09T04:38:39;9.88;;;4.32;;
24173;SDS011;12324;48.146;11.502;2023-07-09T04:41:06;12.38;;;4.63;;
24173;SDS011;12324;48.146;11.502;2023-07-09T04:43:33;8.82;;;3.75;;
24173;SDS011;12324;48.146;11.502;2023-07-09T04:46:00;10.40;;;4.07;;
24173;SDS011;12324;48.146;11.502;2023-07-09T04:48:28;11.13;;;4.35;;
24173;SDS011;12324;48.146;11.502;2023-07-09T04:50:55;8.50;;;3.80;;
24173;SDS011;12324;48.146;11.502;2023-07-09T04:53:22;9.95;;;3.78;;
24173;SDS011;12324;48.146;11.502;2023-07-09T04:55:50;10.30;;;4.30;;
24173;SDS011;12324;48.146;11.502;2023-07-09T04:58:17;7.70;;;3.80;;
24173;SDS011;12324;48.146;11.502;2023-07-09T05:00:45;8.10;;;3.58;;
24173;SDS011;12324;48.146;11.502;2023-07-09T05:03:11;9.82;;;3.88;;
24173;SDS011;12324;48.146;11.502;2023-07-09T05:05:42;13.02;;;4.47;;
24173;SDS011;12324;48.146;11.502;2023-07-09T05:08:11;9.93;;;4.20;;
24173;SDS011;12324;48.146;11.502;2023-07-09T05:10:41;12.20;;;4.40;;
24173;SDS011;12324;48.146;11.502;2023-07-09T05:13:09;10.95;;;4.28;;
24173;SDS011;12324;48.146;11.502;2023-07-09T05:15:39;10.25;;;3.90;;
24173;SDS011;12324;48.146;11.502;2023-07-09T05:18:07;12.60;;;3.75;;
24173;SDS011;12324;48.146;11.502;2023-07-09T05:20:34;11.27;;;4.18;;
24173;SDS011;12324;48.146;11.502;2023-07-09T05:23:02;8.40;;;3.63;;
24173;SDS011;12324;48.146;11.502;2023-07-09T05:25:29;8.50;;;3.55;;
24173;SDS011;12324;48.146;11.502;2023-07-09T05:27:56;9.40;;;3.30;;
24173;SDS011;12324;48.146;11.502;2023-07-09T05:30:24;12.68;;;3.85;;
24173;SDS011;12324;48.146;11.502;2023-07-09T05:32:51;11.00;;;4.07;;
24173;SDS011;12324;48.146;11.502;2023-07-09T05:35:19;9.20;;;3.67;;
24173;SDS011;12324;48.146;11.502;2023-07-09T05:37:47;9.93;;;4.18;;
24173;SDS011;12324;48.146;11.502;2023-07-09T05:40:13;9.02;;;3.95;;
24173;SDS011;12324;48.146;11.502;2023-07-09T05:42:40;6.70;;;3.10;;
24173;SDS011;12324;48.146;11.502;2023-07-09T05:45:08;10.55;;;4.43;;
24173;SDS011;12324;48.146;11.502;2023-07-09T05:47:35;9.48;;;3.67;;
24173;SDS011;12324;48.146;11.502;2023-07-09T05:50:03;13.73;;;4.60;;
24173;SDS011;12324;48.146;11.502;2023-07-09T05:52:30;9.63;;;4.05;;
24173;SDS011;12324;48.146;11.502;2023-07-09T05:54:58;8.23;;;3.60;;
24173;SDS011;12324;48.146;11.502;2023-07-09T05:57:25;8.48;;;3.47;;
24173;SDS011;12324;48.146;11.502;2023-07-09T05:59:52;8.82;;;4.18;;
24173;SDS011;12324;48.146;11.502;2023-07-09T06:02:20;7.72;;;3.75;;
24173;SDS011;12324;48.146;11.502;2023-07-09T06:04:47;8.82;;;3.50;;
24173;SDS011;12324;48.146;11.502;2023-07-09T06:07:17;9.25;;;3.67;;
24173;SDS011;12324;48.146;11.502;2023-07-09T06:09:44;9.90;;;3.63;;
24173;SDS011;12324;48.146;11.502;2023-07-09T06:12:14;8.32;;;3.55;;
24173;SDS011;12324;48.146;11.502;2023-07-09T06:14:41;7.85;;;3.92;;
24173;SDS011;12324;48.146;11.502;2023-07-09T06:17:09;8.30;;;3.35;;
24173;SDS011;12324;48.146;11.502;2023-07-09T06:19:36;9.55;;;3.92;;
24173;SDS011;12324;48.146;11.502;2023-07-09T06:22:04;7.63;;;3.13;;
24173;SDS011;12324;48.146;11.502;2023-07-09T06:24:31;8.60;;;3.47;;
24173;SDS011;12324;48.146;11.502;2023-07-09T06:26:58;8.52;;;3.03;;
24173;SDS011;12324;48.146;11.502;2023-07-09T06:29:25;9.15;;;4.18;;
24173;SDS011;12324;48.146;11.502;2023-07-09T06:31:52;6.70;;;3.30;;
24173;SDS011;12324;48.146;11.502;2023-07-09T06:34:19;10.80;;;3.90;;
24173;SDS011;12324;48.146;11.502;2023-07-09T06:36:47;7.80;;;3.33;;
24173;SDS011;12324;48.146;11.502;2023-07-09T06:39:14;5.90;;;3.17;;
24173;SDS011;12324;48.146;11.502;2023-07-09T06:41:42;8.55;;;3.60;;
24173;SDS011;12324;48.146;11.502;2023-07-09T06:44:09;8.25;;;3.72;;
24173;SDS011;12324;48.146;11.502;2023-07-09T06:46:36;8.85;;;3.60;;
24173;SDS011;12324;48.146;11.502;2023-07-09T06:49:03;8.10;;;3.55;;
24173;SDS011;12324;48.146;11.502;2023-07-09T06:51:33;11.52;;;4.25;;
24173;SDS011;12324;48.146;11.502;2023-07-09T06:54:01;6.82;;;3.45;;
24173;SDS011;12324;48.146;11.502;2023-07-09T06:56:28;8.02;;;3.63;;
24173;SDS011;12324;48.146;11.502;2023-07-09T06:58:55;7.25;;;3.33;;
24173;SDS011;12324;48.146;11.502;2023-07-09T07:01:22;7.30;;;3.92;;
24173;SDS011;12324;48.146;11.502;2023-07-09T07:03:49;9.25;;;4.03;;
24173;SDS011;12324;48.146;11.502;2023-07-09T07:06:16;9.05;;;3.75;;
24173;SDS011;12324;48.146;11.502;2023-07-09T07:08:43;8.10;;;3.55;;
24173;SDS011;12324;48.146;11.502;2023-07-09T07:11:11;7.95;;;3.55;;
24173;SDS011;12324;48.146;11.502;2023-07-09T07:13:38;8.95;;;4.25;;
24173;SDS011;12324;48.146;11.502;2023-07-09T07:16:07;7.43;;;3.47;;
24173;SDS011;12324;48.146;11.502;2023-07-09T07:18:35;8.55;;;3.85;;
24173;SDS011;12324;48.146;11.502;2023-07-09T07:21:03;7.28;;;3.50;;
24173;SDS011;12324;48.146;11.502;2023-07-09T07:23:30;9.15;;;3.75;;
24173;SDS011;12324;48.146;11.502;2023-07-09T07:25:58;9.85;;;3.85;;
24173;SDS011;12324;48.146;11.502;2023-07-09T07:28:25;12.40;;;4.03;;
24173;SDS011;12324;48.146;11.502;2023-07-09T07:31:02;8.30;;;3.53;;
24173;SDS011;12324;48.146;11.502;2023-07-09T07:33:29;10.73;;;4.10;;
24173;SDS011;12324;48.146;11.502;2023-07-09T07:35:56;12.77;;;3.42;;
24173;SDS011;12324;48.146;11.502;2023-07-09T07:38:26;6.72;;;3.42;;
24173;SDS011;12324;48.146;11.502;2023-07-09T07:40:53;10.02;;;3.67;;
24173;SDS011;12324;48.146;11.502;2023-07-09T07:43:20;7.05;;;3.15;;
24173;SDS011;12324;48.146;11.502;2023-07-09T07:45:47;9.88;;;4.18;;
24173;SDS011;12324;48.146;11.502;2023-07-09T07:48:14;9.00;;;3.88;;
24173;SDS011;12324;48.146;11.502;2023-07-09T07:50:41;7.28;;;3.13;;
24173;SDS011;12324;48.146;11.502;2023-07-09T07:53:08;9.20;;;3.85;;
24173;SDS011;12324;48.146;11.502;2023-07-09T07:55:36;8.75;;;3.30;;
24173;SDS011;12324;48.146;11.502;2023-07-09T07:58:03;8.38;;;3.97;;
24173;SDS011;12324;48.146;11.502;2023-07-09T08:00:31;7.93;;;3.55;;
24173;SDS011;12324;48.146;11.502;2023-07-09T08:02:58;10.57;;;3.70;;
24173;SDS011;12324;48.146;11.502;2023-07-09T08:05:26;10.20;;;3.28;;
24173;SDS011;12324;48.146;11.502;2023-07-09T08:07:54;9.00;;;3.88;;
24173;SDS011;12324;48.146;11.502;2023-07-09T08:10:21;8.95;;;4.15;;
24173;SDS011;12324;48.146;11.502;2023-07-09T08:12:48;10.43;;;3.88;;
24173;SDS011;12324;48.146;11.502;2023-07-09T08:15:15;11.00;;;3.70;;
24173;SDS011;12324;48.146;11.502;2023-07-09T08:17:43;8.43;;;3.53;;
24173;SDS011;12324;48.146;11.502;2023-07-09T08:20:10;9.07;;;3.83;;
24173;SDS011;12324;48.146;11.502;2023-07-09T08:22:37;7.00;;;3.40;;
24173;SDS011;12324;48.146;11.502;2023-07-09T08:25:06;6.78;;;3.47;;
24173;SDS011;12324;48.146;11.502;2023-07-09T08:27:33;9.63;;;4.13;;
24173;SDS011;12324;48.146;11.502;2023-07-09T08:30:00;8.73;;;4.13;;
24173;SDS011;12324;48.146;11.502;2023-07-09T08:32:27;7.70;;;3.53;;
24173;SDS011;12324;48.146;11.502;2023-07-09T08:34:55;9.63;;;4.30;;
24173;SDS011;12324;48.146;11.502;2023-07-09T08:37:42;9.00;;;3.92;;
24173;SDS011;12324;48.146;11.502;2023-07-09T08:40:13;6.45;;;3.45;;
24173;SDS011;12324;48.146;11.502;2023-07-09T08:42:45;8.68;;;3.78;;
24173;SDS011;12324;48.146;11.502;2023-07-09T08:50:37;9.20;;;4.13;;
24173;SDS011;12324;48.146;11.502;2023-07-09T08:53:05;8.65;;;3.38;;
24173;SDS011;12324;48.146;11.502;2023-07-09T08:55:36;8.55;;;3.80;;
24173;SDS011;12324;48.146;11.502;2023-07-09T08:58:17;11.15;;;3.88;;
24173;SDS011;12324;48.146;11.502;2023-07-09T09:00:54;11.80;;;4.75;;
24173;SDS011;12324;48.146;11.502;2023-07-09T09:05:49;8.40;;;3.38;;
24173;SDS011;12324;48.146;11.502;2023-07-09T09:14:03;7.95;;;4.07;;
24173;SDS011;12324;48.146;11.502;2023-07-09T09:16:35;8.52;;;3.42;;
24173;SDS011;12324;48.146;11.502;2023-07-09T09:19:02;10.02;;;3.78;;
24173;SDS011;12324;48.146;11.502;2023-07-09T09:21:33;8.80;;;4.07;;
24173;SDS011;12324;48.146;11.502;2023-07-09T09:24:15;7.88;;;3.33;;
24173;SDS011;12324;48.146;11.502;2023-07-09T09:26:44;8.95;;;3.72;;
24173;SDS011;12324;48.146;11.502;2023-07-09T09:29:13;9.82;;;4.07;;
24173;SDS011;12324;48.146;11.502;2023-07-09T09:31:41;9.23;;;3.50;;
24173;SDS011;12324;48.146;11.502;2023-07-09T09:34:19;6.43;;;2.90;;
24173;SDS011;12324;48.146;11.502;2023-07-09T09:36:47;8.75;;;3.47;;
24173;SDS011;12324;48.146;11.502;2023-07-09T09:39:15;8.30;;;3.33;;
24173;SDS011;12324;48.146;11.502;2023-07-09T09:41:43;8.73;;;3.65;;
24173;SDS011;12324;48.146;11.502;2023-07-09T09:44:17;8.32;;;3.92;;
24173;SDS011;12324;48.146;11.502;2023-07-09T09:46:44;12.10;;;4.33;;
24173;SDS011;12324;48.146;11.502;2023-07-09T09:49:11;10.55;;;3.67;;
24173;SDS011;12324;48.146;11.502;2023-07-09T09:51:39;10.05;;;4.00;;
24173;SDS011;12324;48.146;11.502;2023-07-09T09:54:10;7.38;;;3.50;;
24173;SDS011;12324;48.146;11.502;2023-07-09T09:56:38;5.93;;;3.05;;
24173;SDS011;12324;48.146;11.502;2023-07-09T09:59:05;7.97;;;3.63;;
24173;SDS011;12324;48.146;11.502;2023-07-09T10:01:33;7.38;;;3.20;;
24173;SDS011;12324;48.146;11.502;2023-07-09T10:04:05;8.15;;;3.70;;
24173;SDS011;12324;48.146;11.502;2023-07-09T10:06:36;9.18;;;4.35;;
24173;SDS011;12324;48.146;11.502;2023-07-09T10:09:15;8.95;;;3.20;;
24173;SDS011;12324;48.146;11.502;2023-07-09T10:11:48;8.10;;;3.85;;
24173;SDS011;12324;48.146;11.502;2023-07-09T10:14:26;7.40;;;3.55;;
24173;SDS011;12324;48.146;11.502;2023-07-09T10:17:04;9.27;;;3.60;;
24173;SDS011;12324;48.146;11.502;2023-07-09T10:19:39;10.05;;;3.38;;
24173;SDS011;12324;48.146;11.502;2023-07-09T10:22:13;10.65;;;4.03;;
24173;SDS011;12324;48.146;11.502;2023-07-09T10:27:29;7.07;;;3.63;;
24173;SDS011;12324;48.146;11.502;2023-07-09T10:35:18;7.53;;;3.35;;
24173;SDS011;12324;48.146;11.502;2023-07-09T10:40:16;8.75;;;3.72;;
24173;SDS011;12324;48.146;11.502;2023-07-09T10:42:45;7.53;;;3.88;;
24173;SDS011;12324;48.146;11.502;2023-07-09T10:45:15;10.02;;;4.15;;
24173;SDS011;12324;48.146;11.502;2023-07-09T10:47:44;9.57;;;4.07;;
24173;SDS011;12324;48.146;11.502;2023-07-09T10:50:15;7.75;;;3.40;;
24173;SDS011;12324;48.146;11.502;2023-07-09T10:52:46;9.90;;;4.20;;
24173;SDS011;12324;48.146;11.502;2023-07-09T10:55:17;5.60;;;3.40;;
24173;SDS011;12324;48.146;11.502;2023-07-09T10:57:52;7.75;;;3.35;;
24173;SDS011;12324;48.146;11.502;2023-07-09T11:00:22;10.70;;;3.47;;
24173;SDS011;12324;48.146;11.502;2023-07-09T11:02:58;7.85;;;3.28;;
24173;SDS011;12324;48.146;11.502;2023-07-09T11:05:26;8.90;;;3.53;;
24173;SDS011;12324;48.146;11.502;2023-07-09T11:10:34;5.95;;;2.78;;
24173;SDS011;12324;48.146;11.502;2023-07-09T11:15:31;8.75;;;3.50;;
24173;SDS011;12324;48.146;11.502;2023-07-09T11:17:59;7.35;;;3.38;;
24173;SDS011;12324;48.146;11.502;2023-07-09T11:20:32;7.82;;;3.03;;
24173;SDS011;12324;48.146;11.502;2023-07-09T11:23:04;8.77;;;3.80;;
24173;SDS011;12324;48.146;11.502;2023-07-09T11:25:41;8.70;;;3.88;;
24173;SDS011;12324;48.146;11.502;2023-07-09T11:28:09;7.18;;;3.08;;
24173;SDS011;12324;48.146;11.502;2023-07-09T11:33:28;8.43;;;3.53;;
24173;SDS011;12324;48.146;11.502;2023-07-09T11:36:06;8.10;;;3.15;;
24173;SDS011;12324;48.146;11.502;2023-07-09T11:38:42;9.35;;;3.95;;
24173;SDS011;12324;48.146;11.502;2023-07-09T11:41:26;9.52;;;3.85;;
24173;SDS011;12324;48.146;11.502;2023-07-09T11:44:04;7.63;;;3.03;;
24173;SDS011;12324;48.146;11.502;2023-07-09T11:46:31;7.57;;;3.35;;
24173;SDS011;12324;48.146;11.502;2023-07-09T11:48:59;7.13;;;3.15;;
24173;SDS011;12324;48.146;11.502;2023-07-09T11:51:40;7.35;;;3.13;;
24173;SDS011;12324;48.146;11.502;2023-07-09T11:54:10;7.30;;;3.40;;
24173;SDS011;12324;48.146;11.502;2023-07-09T11:56:39;8.98;;;3.45;;
24173;SDS011;12324;48.146;11.502;2023-07-09T11:59:07;8.32;;;3.20;;
24173;SDS011;12324;48.146;11.502;2023-07-09T12:01:36;9.00;;;3.50;;
24173;SDS011;12324;48.146;11.502;2023-07-09T12:04:06;6.82;;;3.05;;
24173;SDS011;12324;48.146;11.502;2023-07-09T12:06:33;7.85;;;3.33;;
24173;SDS011;12324;48.146;11.502;2023-07-09T12:09:00;5.90;;;3.20;;
24173;SDS011;12324;48.146;11.502;2023-07-09T12:11:32;8.93;;;3.53;;
24173;SDS011;12324;48.146;11.502;2023-07-09T12:14:08;8.25;;;3.50;;
24173;SDS011;12324;48.146;11.502;2023-07-09T12:16:47;7.90;;;3.53;;
24173;SDS011;12324;48.146;11.502;2023-07-09T12:19:16;7.40;;;3.13;;
24173;SDS011;12324;48.146;11.502;2023-07-09T12:21:44;9.10;;;3.75;;
24173;SDS011;12324;48.146;11.502;2023-07-09T12:26:46;8.30;;;3.97;;
24173;SDS011;12324;48.146;11.502;2023-07-09T12:29:14;11.07;;;4.28;;
24173;SDS011;12324;48.146;11.502;2023-07-09T12:31:41;13.02;;;4.35;;
24173;SDS011;12324;48.146;11.502;2023-07-09T12:34:12;7.80;;;3.85;;
24173;SDS011;12324;48.146;11.502;2023-07-09T12:36:41;7.75;;;3.30;;
24173;SDS011;12324;48.146;11.502;2023-07-09T12:39:10;8.35;;;3.88;;
24173;SDS011;12324;48.146;11.502;2023-07-09T12:41:39;12.82;;;4.00;;
24173;SDS011;12324;48.146;11.502;2023-07-09T12:44:17;8.68;;;3.95;;
24173;SDS011;12324;48.146;11.502;2023-07-09T12:46:46;7.00;;;3.28;;
24173;SDS011;12324;48.146;11.502;2023-07-09T12:49:23;9.18;;;3.70;;
24173;SDS011;12324;48.146;11.502;2023-07-09T12:51:50;8.85;;;3.90;;
24173;SDS011;12324;48.146;11.502;2023-07-09T12:54:19;9.00;;;3.97;;
24173;SDS011;12324;48.146;11.502;2023-07-09T12:56:50;9.10;;;4.47;;
24173;SDS011;12324;48.146;11.502;2023-07-09T13:01:55;9.32;;;3.55;;
24173;SDS011;12324;48.146;11.502;2023-07-09T13:04:33;7.25;;;3.65;;
24173;SDS011;12324;48.146;11.502;2023-07-09T13:07:02;7.25;;;3.70;;
24173;SDS011;12324;48.146;11.502;2023-07-09T13:09:29;7.57;;;3.92;;
24173;SDS011;12324;48.146;11.502;2023-07-09T13:11:57;7.70;;;3.55;;
24173;SDS011;12324;48.146;11.502;2023-07-09T13:14:26;9.05;;;4.05;;
24173;SDS011;12324;48.146;11.502;2023-07-09T13:17:01;10.25;;;4.18;;
24173;SDS011;12324;48.146;11.502;2023-07-09T13:19:28;8.85;;;4.07;;
24173;SDS011;12324;48.146;11.502;2023-07-09T13:21:55;8.63;;;4.00;;
24173;SDS011;12324;48.146;11.502;2023-07-09T13:24:23;8.40;;;4.20;;
24173;SDS011;12324;48.146;11.502;2023-07-09T13:26:51;8.85;;;3.85;;
24173;SDS011;12324;48.146;11.502;2023-07-09T13:29:19;6.15;;;2.90;;
24173;SDS011;12324;48.146;11.502;2023-07-09T13:31:47;6.60;;;3.70;;
24173;SDS011;12324;48.146;11.502;2023-07-09T13:34:19;8.00;;;3.67;;
24173;SDS011;12324;48.146;11.502;2023-07-09T13:36:46;11.30;;;4.13;;
24173;SDS011;12324;48.146;11.502;2023-07-09T13:39:15;7.68;;;3.92;;
24173;SDS011;12324;48.146;11.502;2023-07-09T13:41:46;6.53;;;3.20;;
24173;SDS011;12324;48.146;11.502;2023-07-09T13:44:16;10.73;;;4.15;;
24173;SDS011;12324;48.146;11.502;2023-07-09T13:46:44;9.35;;;3.72;;
24173;SDS011;12324;48.146;11.502;2023-07-09T13:49:12;10.00;;;3.83;;
24173;SDS011;12324;48.146;11.502;2023-07-09T13:51:40;9.43;;;4.20;;
24173;SDS011;12324;48.146;11.502;2023-07-09T13:54:14;7.90;;;4.07;;
24173;SDS011;12324;48.146;11.502;2023-07-09T13:56:41;9.27;;;3.47;;
24173;SDS011;12324;48.146;11.502;2023-07-09T13:59:11;7.47;;;4.20;;
24173;SDS011;12324;48.146;11.502;2023-07-09T14:01:39;8.07;;;3.78;;
24173;SDS011;12324;48.146;11.502;2023-07-09T14:04:08;10.13;;;4.88;;
24173;SDS011;12324;48.146;11.502;2023-07-09T14:06:36;9.82;;;4.18;;
24173;SDS011;12324;48.146;11.502;2023-07-09T14:09:03;10.50;;;4.43;;
24173;SDS011;12324;48.146;11.502;2023-07-09T14:11:30;9.25;;;4.10;;
24173;SDS011;12324;48.146;11.502;2023-07-09T14:13:57;6.95;;;3.38;;
24173;SDS011;12324;48.146;11.502;2023-07-09T14:16:25;9.48;;;4.20;;
24173;SDS011;12324;48.146;11.502;2023-07-09T14:18:52;7.22;;;3.83;;
24173;SDS011;12324;48.146;11.502;2023-07-09T14:21:25;9.65;;;4.13;;
24173;SDS011;12324;48.146;11.502;2023-07-09T14:26:19;8.35;;;4.10;;
24173;SDS011;12324;48.146;11.502;2023-07-09T14:28:47;7.80;;;3.33;;
24173;SDS011;12324;48.146;11.502;2023-07-09T14:31:22;9.38;;;4.00;;
24173;SDS011;12324;48.146;11.502;2023-07-09T14:33:50;8.32;;;4.05;;
24173;SDS011;12324;48.146;11.502;2023-07-09T14:36:17;7.75;;;4.22;;
24173;SDS011;12324;48.146;11.502;2023-07-09T14:38:44;10.13;;;4.20;;
24173;SDS011;12324;48.146;11.502;2023-07-09T14:41:24;7.80;;;3.45;;
24173;SDS011;12324;48.146;11.502;2023-07-09T14:43:54;9.70;;;3.58;;
24173;SDS011;12324;48.146;11.502;2023-07-09T14:46:23;8.98;;;4.00;;
24173;SDS011;12324;48.146;11.502;2023-07-09T14:48:50;9.40;;;4.25;;
24173;SDS011;12324;48.146;11.502;2023-07-09T14:51:18;7.22;;;3.63;;
24173;SDS011;12324;48.146;11.502;2023-07-09T14:53:46;7.40;;;3.65;;
24173;SDS011;12324;48.146;11.502;2023-07-09T14:56:13;8.55;;;4.00;;
24173;SDS011;12324;48.146;11.502;2023-07-09T14:58:41;9.73;;;4.10;;
24173;SDS011;12324;48.146;11.502;2023-07-09T15:01:10;9.23;;;4.00;;
24173;SDS011;12324;48.146;11.502;2023-07-09T15:03:39;7.65;;;3.88;;
24173;SDS011;12324;48.146;11.502;2023-07-09T15:06:08;9.60;;;4.65;;
24173;SDS011;12324;48.146;11.502;2023-07-09T15:08:35;9.30;;;4.28;;
24173;SDS011;12324;48.146;11.502;2023-07-09T15:11:03;9.63;;;4.47;;
24173;SDS011;12324;48.146;11.502;2023-07-09T15:13:32;10.20;;;4.53;;
24173;SDS011;12324;48.146;11.502;2023-07-09T15:16:01;10.60;;;4.55;;
24173;SDS011;12324;48.146;11.502;2023-07-09T15:18:30;5.85;;;3.38;;
24173;SDS011;12324;48.146;11.502;2023-07-09T15:20:58;7.28;;;3.88;;
24173;SDS011;12324;48.146;11.502;2023-07-09T15:23:28;7.22;;;3.65;;
24173;SDS011;12324;48.146;11.502;2023-07-09T15:25:56;8.07;;;3.95;;
24173;SDS011;12324;48.146;11.502;2023-07-09T15:28:23;6.85;;;3.85;;